Time;durP1;ratioP1;P1;durP2;ratioP2;P2;SDS_P1;SDS_P2;PMS_P1;PMS_P2;Temp;Humidity;BMP_temperature;BMP_pressure;BME280_temperature;BME280_humidity;BME280_pressure;Samples;Min_cycle;Max_cycle;Signal;HPM_P1;HPM_P2
2021/12/25 00:01:09;;;;;;;10.35;1.40;;;-1.30;99.90;;;;;;5108562;28;20065;-92
2021/12/25 00:03:36;;;;;;;5.38;1.13;;;-1.40;99.90;;;;;;5108081;28;20043;-91
2021/12/25 00:06:02;;;;;;;6.35;1.02;;;-1.40;99.90;;;;;;5083327;28;20501;-93
2021/12/25 00:08:31;;;;;;;6.38;1.00;;;-1.30;99.90;;;;;;5126573;27;20105;-92
2021/12/25 00:10:58;;;;;;;6.72;1.10;;;-0.60;99.90;;;;;;5093551;27;20058;-92
2021/12/25 00:13:24;;;;;;;5.22;1.10;;;-1.40;99.90;;;;;;5091949;27;20058;-93
2021/12/25 00:15:51;;;;;;;2.35;0.65;;;-1.40;99.90;;;;;;5091542;27;20051;-91
2021/12/25 00:18:18;;;;;;;3.63;0.85;;;-1.50;99.90;;;;;;5105435;27;20039;-90
2021/12/25 00:20:44;;;;;;;8.43;0.80;;;-1.50;99.90;;;;;;5093465;27;20453;-91
2021/12/25 00:23:10;;;;;;;5.88;1.13;;;-1.50;99.90;;;;;;5109929;27;20053;-92
2021/12/25 00:25:39;;;;;;;4.80;0.90;;;-1.60;99.90;;;;;;5094222;27;20097;-90
2021/12/25 00:35:58;;;;;;;4.78;0.88;;;-1.70;99.90;;;;;;5109905;27;20063;-90
2021/12/25 00:38:23;;;;;;;8.73;1.10;;;-1.80;99.90;;;;;;5094472;27;20785;-90
2021/12/25 00:40:49;;;;;;;4.63;0.80;;;-1.80;99.90;;;;;;5090987;27;20091;-91
2021/12/25 00:43:15;;;;;;;4.03;0.73;;;-1.10;99.90;;;;;;5094422;27;20038;-92
2021/12/25 00:45:40;;;;;;;4.53;0.88;;;-1.80;99.90;;;;;;5114167;27;20046;-89
2021/12/25 00:48:06;;;;;;;4.45;1.73;;;-1.90;99.90;;;;;;5091999;27;20369;-90
2021/12/25 00:50:32;;;;;;;6.65;1.02;;;-1.90;99.90;;;;;;5096105;27;20043;-91
2021/12/25 00:52:57;;;;;;;3.47;0.70;;;-1.90;99.90;;;;;;5093702;27;20185;-90
2021/12/25 00:55:23;;;;;;;10.38;1.10;;;-1.90;99.90;;;;;;5109637;27;20842;-90
2021/12/25 00:57:49;;;;;;;9.43;1.02;;;-2.00;99.90;;;;;;5093910;27;20419;-89
2021/12/25 01:00:15;;;;;;;6.90;1.38;;;-2.00;99.90;;;;;;5111546;27;20619;-90
2021/12/25 01:02:42;;;;;;;5.75;0.80;;;-2.00;99.90;;;;;;5112316;27;20702;-90
2021/12/25 01:05:12;;;;;;;4.80;0.70;;;-2.00;99.90;;;;;;5109951;27;20058;-88
2021/12/25 01:07:37;;;;;;;5.97;0.85;;;-2.00;99.90;;;;;;5096130;27;20035;-90
2021/12/25 01:10:08;;;;;;;2.17;0.60;;;-2.10;99.90;;;;;;5095568;27;20041;-89
2021/12/25 01:12:50;;;;;;;4.03;0.70;;;-1.10;99.90;;;;;;5093897;27;20051;-89
2021/12/25 01:15:19;;;;;;;2.28;0.73;;;-2.10;99.90;;;;;;5093496;27;20035;-89
2021/12/25 01:18:30;;;;;;;5.50;0.90;;;-2.10;99.90;;;;;;5094803;27;20042;-90
2021/12/25 01:29:14;;;;;;;3.25;0.90;;;-2.20;99.90;;;;;;5112724;27;20050;-90
2021/12/25 01:31:32;;;;;;;6.13;0.80;;;-2.30;99.90;;;;;;5108908;27;20046;-89
2021/12/25 01:47:44;;;;;;;6.97;1.10;;;-2.50;99.90;;;;;;5090391;28;20381;-87
2021/12/25 01:47:52;;;;;;;4.20;0.80;;;-2.50;99.90;;;;;;5105372;27;20119;-88
2021/12/25 01:50:24;;;;;;;3.10;1.00;;;-2.60;99.90;;;;;;5074165;27;20046;-89
2021/12/25 01:52:50;;;;;;;3.47;0.70;;;-2.40;99.90;;;;;;5089742;27;20496;-88
2021/12/25 01:55:20;;;;;;;3.45;0.82;;;-2.60;99.90;;;;;;5090443;28;20100;-86
2021/12/25 01:57:46;;;;;;;3.63;0.85;;;-2.60;99.90;;;;;;5088151;27;20042;-88
2021/12/25 02:00:22;;;;;;;2.88;0.80;;;-2.60;99.90;;;;;;5086238;28;20044;-88
2021/12/25 02:02:49;;;;;;;2.17;0.55;;;-2.60;99.90;;;;;;5071961;28;20040;-88
2021/12/25 02:05:16;;;;;;;3.35;0.50;;;-2.70;99.90;;;;;;5078335;28;20507;-86
2021/12/25 02:07:42;;;;;;;5.07;0.80;;;-1.60;99.90;;;;;;5067513;28;20123;-87
2021/12/25 02:10:09;;;;;;;3.83;0.80;;;-2.70;99.90;;;;;;5088896;28;20515;-88
2021/12/25 02:12:34;;;;;;;7.78;0.88;;;-2.80;99.90;;;;;;5070099;28;20047;-87
2021/12/25 02:15:07;;;;;;;1.70;0.80;;;-2.80;99.90;;;;;;5072045;28;20389;-87
2021/12/25 02:18:05;;;;;;;5.13;0.88;;;-2.90;99.90;;;;;;5077137;28;20047;-87
2021/12/25 02:20:42;;;;;;;2.55;0.70;;;-2.90;99.90;;;;;;5058291;28;20044;-86
2021/12/25 02:23:21;;;;;;;1.80;0.60;;;-2.80;99.90;;;;;;5088830;28;20055;-87
2021/12/25 02:25:54;;;;;;;2.95;0.70;;;-2.90;99.90;;;;;;5071696;28;20546;-87
2021/12/25 02:28:21;;;;;;;1.20;0.57;;;-3.00;99.90;;;;;;5078673;28;20051;-86
2021/12/25 02:30:49;;;;;;;5.07;0.98;;;-3.00;99.90;;;;;;5088181;28;20092;-87
2021/12/25 02:33:16;;;;;;;2.25;0.52;;;-2.80;99.90;;;;;;5071357;28;20123;-86
2021/12/25 02:35:43;;;;;;;2.75;0.70;;;-3.00;99.90;;;;;;5084955;28;20043;-87
2021/12/25 02:38:09;;;;;;;3.30;0.63;;;-3.10;99.90;;;;;;5072018;28;20090;-86
2021/12/25 02:40:34;;;;;;;1.27;0.50;;;-3.10;99.90;;;;;;5080750;28;20151;-86
2021/12/25 02:43:00;;;;;;;4.50;0.75;;;-3.10;99.90;;;;;;5067219;28;20093;-86
2021/12/25 02:45:27;;;;;;;3.15;0.70;;;-3.10;99.90;;;;;;5066331;28;20040;-86
2021/12/25 02:47:55;;;;;;;2.17;0.60;;;-3.10;99.90;;;;;;5085197;28;20062;-85
2021/12/25 02:50:24;;;;;;;2.08;0.60;;;-3.20;99.90;;;;;;5081998;28;20039;-86
2021/12/25 02:52:49;;;;;;;3.80;0.50;;;-3.20;99.90;;;;;;5059432;28;21556;-86
2021/12/25 02:55:15;;;;;;;3.28;0.60;;;-3.20;99.90;;;;;;5077336;28;20067;-86
2021/12/25 02:57:41;;;;;;;1.02;0.57;;;-3.20;99.90;;;;;;5080906;28;20051;-85
2021/12/25 03:00:08;;;;;;;3.17;0.80;;;-3.20;99.90;;;;;;5099164;28;20039;-86
2021/12/25 03:02:34;;;;;;;5.05;0.52;;;-3.30;99.90;;;;;;5071125;27;20086;-86
2021/12/25 03:05:01;;;;;;;2.33;0.57;;;-3.30;99.90;;;;;;5087857;28;20134;-85
2021/12/25 03:07:26;;;;;;;4.25;0.68;;;-3.20;99.90;;;;;;5069630;28;20545;-85
2021/12/25 03:09:52;;;;;;;2.85;0.40;;;-3.30;99.90;;;;;;5070159;28;20127;-85
2021/12/25 03:12:27;;;;;;;3.30;0.63;;;-3.30;99.90;;;;;;5063468;28;20040;-86
2021/12/25 03:15:06;;;;;;;4.38;1.00;;;-2.70;99.90;;;;;;5095817;28;20051;-86
2021/12/25 03:17:33;;;;;;;1.40;0.50;;;-3.30;99.90;;;;;;5083694;28;20438;-86
2021/12/25 03:19:59;;;;;;;2.58;0.50;;;-3.40;99.90;;;;;;5066691;28;20500;-85
2021/12/25 03:22:25;;;;;;;1.98;0.40;;;-3.40;99.90;;;;;;5085164;28;20047;-86
2021/12/25 03:24:51;;;;;;;3.30;0.40;;;-3.40;99.90;;;;;;5069314;28;20143;-86
2021/12/25 03:27:17;;;;;;;1.42;0.43;;;-3.40;99.90;;;;;;5084557;28;20047;-85
2021/12/25 03:29:42;;;;;;;2.25;0.52;;;-3.40;99.90;;;;;;5069899;28;20082;-85
2021/12/25 03:32:11;;;;;;;1.77;0.40;;;-3.40;99.90;;;;;;5066799;28;20100;-86
2021/12/25 03:34:37;;;;;;;3.20;0.50;;;-3.50;99.90;;;;;;5069139;28;20126;-85
2021/12/25 03:37:05;;;;;;;2.72;0.52;;;-3.50;99.90;;;;;;5089305;28;20043;-85
2021/12/25 03:39:31;;;;;;;3.85;0.50;;;-3.50;99.90;;;;;;5087453;28;20093;-85
2021/12/25 03:41:58;;;;;;;4.75;0.80;;;-2.20;99.90;;;;;;5112484;27;20078;-85
2021/12/25 03:44:26;;;;;;;0.95;0.47;;;-3.50;99.90;;;;;;5112993;27;20061;-86
2021/12/25 03:46:53;;;;;;;2.78;0.60;;;-3.60;99.90;;;;;;5114970;27;20080;-86
2021/12/25 03:49:45;;;;;;;3.65;0.50;;;-3.60;99.90;;;;;;5112284;27;20602;-86
2021/12/25 03:57:52;;;;;;;4.32;0.68;;;-3.70;99.90;;;;;;5108830;27;20051;-84
2021/12/25 04:00:27;;;;;;;2.80;0.60;;;-3.70;99.90;;;;;;5094060;27;20035;-85
2021/12/25 04:02:57;;;;;;;1.92;0.55;;;-3.70;99.90;;;;;;5092985;27;20146;-85
2021/12/25 04:05:29;;;;;;;3.70;0.63;;;-3.70;99.90;;;;;;5084838;27;20108;-85
2021/12/25 04:08:07;;;;;;;5.05;1.27;;;-3.80;99.90;;;;;;5092475;27;20119;-85
2021/12/25 04:10:40;;;;;;;4.78;0.70;;;-3.60;99.90;;;;;;5094789;27;20652;-85
2021/12/25 04:13:11;;;;;;;3.45;0.60;;;-3.80;99.90;;;;;;5095372;27;20038;-86
2021/12/25 04:15:37;;;;;;;2.50;0.50;;;-3.80;99.90;;;;;;5096436;27;20476;-84
2021/12/25 04:18:04;;;;;;;0.93;0.50;;;-3.80;99.90;;;;;;5113618;27;20130;-85
2021/12/25 04:20:31;;;;;;;3.10;0.60;;;-3.90;99.90;;;;;;5089944;27;20039;-85
2021/12/25 04:23:01;;;;;;;3.63;0.70;;;-3.90;99.90;;;;;;5113528;27;20590;-85
2021/12/25 04:25:29;;;;;;;2.47;0.50;;;-3.80;99.90;;;;;;5093390;27;20047;-85
2021/12/25 04:28:02;;;;;;;2.92;0.57;;;-3.80;99.90;;;;;;5096666;27;20120;-84
2021/12/25 04:30:35;;;;;;;1.65;0.60;;;-3.90;99.90;;;;;;5095507;27;20054;-84
2021/12/25 04:49:47;;;;;;;1.25;0.60;;;-4.10;99.90;;;;;;5086615;28;20050;-84
2021/12/25 05:03:17;;;;;;;2.63;0.60;;;-4.10;99.90;;;;;;5083001;28;20047;-84
2021/12/25 05:05:43;;;;;;;2.42;0.68;;;-4.10;99.90;;;;;;5086922;28;20051;-84
2021/12/25 05:08:08;;;;;;;3.40;0.68;;;-4.20;99.90;;;;;;5064392;28;20040;-84
2021/12/25 05:10:34;;;;;;;3.65;0.60;;;-4.20;99.90;;;;;;5062127;28;20047;-85
2021/12/25 05:13:00;;;;;;;3.08;0.60;;;-4.20;99.90;;;;;;5086895;28;20464;-84
2021/12/25 05:15:26;;;;;;;2.15;0.52;;;-4.20;99.90;;;;;;5070777;28;20047;-84
2021/12/25 05:17:51;;;;;;;2.38;1.25;;;-4.20;99.90;;;;;;5064282;28;20530;-85
2021/12/25 05:20:18;;;;;;;2.17;0.50;;;-4.20;99.90;;;;;;5100485;28;20492;-84
2021/12/25 05:22:44;;;;;;;4.55;0.70;;;-4.20;99.90;;;;;;5062992;28;20043;-84
2021/12/25 05:25:11;;;;;;;5.30;0.73;;;-4.20;99.90;;;;;;5083636;28;20071;-85
2021/12/25 05:27:37;;;;;;;3.72;0.82;;;-4.20;99.90;;;;;;5063421;28;20149;-84
2021/12/25 05:30:04;;;;;;;1.48;0.52;;;-4.30;99.90;;;;;;5086346;28;20043;-83
2021/12/25 05:32:30;;;;;;;1.85;0.60;;;-4.30;99.90;;;;;;5070773;28;20393;-83
2021/12/25 05:34:55;;;;;;;5.13;0.80;;;-4.30;99.90;;;;;;5072434;28;20051;-84
2021/12/25 05:37:21;;;;;;;2.42;0.43;;;-4.30;99.90;;;;;;5093168;27;20054;-84
2021/12/25 05:39:49;;;;;;;1.05;0.40;;;-4.30;99.90;;;;;;5106705;27;20039;-83
2021/12/25 05:42:17;;;;;;;1.63;0.60;;;-4.30;99.90;;;;;;5085755;27;20031;-84
2021/12/25 05:44:43;;;;;;;1.92;0.60;;;-4.40;99.90;;;;;;5088888;28;20035;-85
2021/12/25 05:47:09;;;;;;;1.60;0.63;;;-4.40;99.90;;;;;;5108498;27;20047;-83
2021/12/25 05:49:34;;;;;;;1.35;0.50;;;-4.20;99.90;;;;;;5087818;27;20766;-84
2021/12/25 05:52:00;;;;;;;1.85;0.52;;;-4.40;99.90;;;;;;5083237;28;20036;-84
2021/12/25 05:54:25;;;;;;;2.03;0.50;;;-4.40;99.90;;;;;;5081235;27;20092;-84
2021/12/25 05:56:52;;;;;;;2.75;0.80;;;-4.40;99.90;;;;;;5106112;27;20062;-84
2021/12/25 05:59:18;;;;;;;4.35;0.68;;;-4.40;99.90;;;;;;5075774;27;20612;-84
2021/12/25 06:01:43;;;;;;;3.08;0.60;;;-4.40;99.90;;;;;;5099053;28;20126;-84
2021/12/25 06:04:09;;;;;;;3.78;0.70;;;-4.40;99.90;;;;;;5093479;28;20047;-84
2021/12/25 06:06:35;;;;;;;1.83;0.50;;;-4.40;99.90;;;;;;5096543;27;20042;-84
2021/12/25 06:09:01;;;;;;;3.13;0.90;;;-4.40;99.90;;;;;;5106795;27;20043;-84
2021/12/25 06:11:28;;;;;;;3.42;0.60;;;-4.40;99.90;;;;;;5108677;27;20043;-84
2021/12/25 06:13:58;;;;;;;4.40;0.82;;;-4.40;99.90;;;;;;5090246;27;20499;-84
2021/12/25 06:16:25;;;;;;;3.00;0.70;;;-4.40;99.90;;;;;;5089024;27;20057;-84
2021/12/25 06:18:51;;;;;;;2.35;0.60;;;-4.40;99.90;;;;;;5097496;28;20049;-84
2021/12/25 06:21:16;;;;;;;5.47;0.90;;;-4.50;99.90;;;;;;5106706;27;20774;-84
2021/12/25 06:23:42;;;;;;;2.22;0.60;;;-4.50;99.90;;;;;;5094757;28;20517;-84
2021/12/25 06:26:08;;;;;;;4.03;0.82;;;-3.10;99.90;;;;;;5102316;27;20047;-84
2021/12/25 06:28:33;;;;;;;3.17;0.65;;;-4.00;99.90;;;;;;5102558;28;20507;-84
2021/12/25 06:30:59;;;;;;;2.30;0.90;;;-4.00;99.90;;;;;;5089123;28;20511;-83
2021/12/25 06:33:24;;;;;;;6.13;0.60;;;-4.50;99.90;;;;;;5091082;27;20096;-83
2021/12/25 06:35:51;;;;;;;1.65;0.57;;;-4.40;99.90;;;;;;5084696;28;20467;-84
2021/12/25 06:38:16;;;;;;;2.33;0.60;;;-4.50;99.90;;;;;;5104069;27;20052;-84
2021/12/25 06:40:42;;;;;;;4.20;0.82;;;-4.50;99.90;;;;;;5082106;27;20046;-83
2021/12/25 06:43:08;;;;;;;2.30;0.60;;;-4.50;99.90;;;;;;5105112;27;20507;-83
2021/12/25 06:45:34;;;;;;;2.33;0.70;;;-4.60;99.90;;;;;;5105593;27;20473;-84
2021/12/25 06:47:59;;;;;;;3.03;0.73;;;-4.60;99.90;;;;;;5097779;27;20078;-83
2021/12/25 06:50:25;;;;;;;2.10;0.65;;;-4.60;99.90;;;;;;5085864;27;20491;-84
2021/12/25 06:52:51;;;;;;;1.75;0.50;;;-4.60;99.90;;;;;;5085151;27;20066;-83
2021/12/25 06:55:17;;;;;;;2.88;0.60;;;-4.60;99.90;;;;;;5088124;27;20128;-84
2021/12/25 06:57:52;;;;;;;4.07;0.68;;;-3.70;99.90;;;;;;5097376;27;20502;-84
2021/12/25 07:00:18;;;;;;;2.15;0.65;;;-4.70;99.90;;;;;;5090095;27;20035;-84
2021/12/25 07:02:43;;;;;;;3.05;0.73;;;-4.70;99.90;;;;;;5098446;28;20065;-84
2021/12/25 07:05:09;;;;;;;1.83;0.50;;;-4.70;99.90;;;;;;5082930;27;20135;-83
2021/12/25 07:07:35;;;;;;;2.35;1.63;;;-4.70;99.90;;;;;;5088382;27;20039;-84
2021/12/25 07:10:02;;;;;;;1.77;0.60;;;-4.70;99.90;;;;;;5106787;27;20050;-84
2021/12/25 07:12:31;;;;;;;6.13;1.00;;;-4.70;99.90;;;;;;5084405;27;20839;-84
2021/12/25 07:14:57;;;;;;;2.83;0.50;;;-4.70;99.90;;;;;;5082796;28;20039;-85
2021/12/25 07:17:22;;;;;;;1.35;0.60;;;-4.70;99.90;;;;;;5105905;27;20564;-84
2021/12/25 07:19:48;;;;;;;3.63;0.65;;;-4.70;99.90;;;;;;5081665;27;20074;-84
2021/12/25 07:22:14;;;;;;;2.05;0.70;;;-4.70;99.90;;;;;;5081555;27;20150;-84
2021/12/25 07:24:39;;;;;;;1.95;0.63;;;-4.70;99.90;;;;;;5101941;28;20142;-83
2021/12/25 07:27:05;;;;;;;5.68;0.55;;;-4.70;99.90;;;;;;5083886;27;20441;-84
2021/12/25 07:29:31;;;;;;;4.53;0.70;;;-4.70;99.90;;;;;;5097843;28;20458;-84
2021/12/25 07:31:57;;;;;;;2.97;0.60;;;-4.70;99.90;;;;;;5102618;27;20090;-85
2021/12/25 07:34:23;;;;;;;2.15;0.60;;;-4.70;99.90;;;;;;5104154;27;20050;-84
2021/12/25 07:36:49;;;;;;;1.67;0.63;;;-4.70;99.90;;;;;;5078219;27;20457;-84
2021/12/25 07:39:14;;;;;;;3.58;0.70;;;-4.70;99.90;;;;;;5067308;28;20078;-84
2021/12/25 07:41:40;;;;;;;5.10;1.00;;;-4.70;99.90;;;;;;5074509;28;20032;-84
2021/12/25 07:44:05;;;;;;;2.88;0.60;;;-4.70;99.90;;;;;;5065989;28;20043;-84
2021/12/25 07:46:33;;;;;;;1.75;0.50;;;-4.80;99.90;;;;;;5084451;28;20032;-83
2021/12/25 07:48:58;;;;;;;2.35;0.80;;;-4.80;99.90;;;;;;5087324;28;20128;-85
2021/12/25 07:51:24;;;;;;;1.90;0.60;;;-4.80;99.90;;;;;;5079860;28;20075;-84
2021/12/25 07:53:51;;;;;;;1.50;0.60;;;-4.80;99.90;;;;;;5087557;28;20471;-85
2021/12/25 07:56:16;;;;;;;2.05;0.63;;;-4.80;99.90;;;;;;5066762;28;20044;-84
2021/12/25 07:58:42;;;;;;;1.92;0.60;;;-4.80;99.90;;;;;;5077035;28;20085;-83
2021/12/25 08:01:09;;;;;;;0.40;0.40;;;-4.80;99.90;;;;;;5084237;28;20051;-83
2021/12/25 08:03:35;;;;;;;3.88;0.70;;;-4.80;99.90;;;;;;5063010;28;20085;-84
2021/12/25 08:06:03;;;;;;;2.58;0.80;;;-4.90;99.90;;;;;;5078341;28;20126;-84
2021/12/25 08:08:28;;;;;;;4.70;0.85;;;-4.80;99.90;;;;;;5079892;28;20043;-84
2021/12/25 08:10:55;;;;;;;4.57;0.55;;;-3.70;99.90;;;;;;5061884;28;20049;-84
2021/12/25 08:13:22;;;;;;;5.07;1.52;;;-4.80;99.90;;;;;;5079945;28;20058;-84
2021/12/25 08:15:48;;;;;;;3.92;0.73;;;-4.80;99.90;;;;;;5083735;28;20051;-84
2021/12/25 08:18:14;;;;;;;2.70;0.70;;;-4.80;99.90;;;;;;5061728;28;20749;-85
2021/12/25 08:20:40;;;;;;;4.03;0.80;;;-4.90;99.90;;;;;;5082007;28;20047;-85
2021/12/25 08:23:07;;;;;;;4.03;1.38;;;-4.90;99.90;;;;;;5081096;28;20039;-86
2021/12/25 08:25:33;;;;;;;1.90;0.50;;;-4.80;99.90;;;;;;5078830;28;20040;-85
2021/12/25 08:27:59;;;;;;;2.55;0.47;;;-4.90;99.90;;;;;;5084579;28;20614;-86
2021/12/25 08:30:26;;;;;;;6.97;0.70;;;-4.80;99.90;;;;;;5100227;28;20040;-85
2021/12/25 08:32:55;;;;;;;2.03;0.77;;;-4.90;99.90;;;;;;5074711;28;20496;-85
2021/12/25 08:35:22;;;;;;;1.58;0.65;;;-4.80;99.90;;;;;;5077515;28;20055;-85
2021/12/25 08:37:48;;;;;;;1.92;0.63;;;-4.80;99.90;;;;;;5094478;27;20398;-85
2021/12/25 08:40:15;;;;;;;1.77;0.70;;;-4.80;99.90;;;;;;5108988;27;20047;-86
2021/12/25 08:42:46;;;;;;;4.05;0.82;;;-4.80;99.90;;;;;;5110685;27;20518;-85
2021/12/25 08:45:38;;;;;;;3.25;1.08;;;-4.70;99.90;;;;;;5121695;27;20119;-85
2021/12/25 08:48:00;;;;;;;4.90;0.80;;;-4.70;99.90;;;;;;5126920;27;20047;-83
2021/12/25 08:50:26;;;;;;;7.55;0.75;;;-4.70;99.90;;;;;;5124759;27;20447;-84
2021/12/25 08:52:52;;;;;;;1.90;0.73;;;-4.60;99.90;;;;;;5099877;27;20054;-85
2021/12/25 08:55:18;;;;;;;2.28;0.80;;;-4.60;99.90;;;;;;5109769;27;20088;-86
2021/12/25 08:57:44;;;;;;;6.68;0.80;;;-4.50;99.90;;;;;;5091632;27;20087;-85
2021/12/25 09:00:10;;;;;;;3.72;1.20;;;-4.50;99.90;;;;;;5085133;28;20040;-86
2021/12/25 09:02:36;;;;;;;1.45;0.55;;;-4.50;99.90;;;;;;5084807;27;20114;-86
2021/12/25 09:05:03;;;;;;;4.50;0.88;;;-4.40;99.90;;;;;;5083845;27;20154;-86
2021/12/25 09:07:28;;;;;;;6.93;1.00;;;-4.40;99.90;;;;;;5105486;27;20540;-86
2021/12/25 09:09:54;;;;;;;2.08;0.70;;;-4.30;99.90;;;;;;5102640;27;20191;-86
2021/12/25 09:12:21;;;;;;;3.75;0.90;;;-3.80;99.90;;;;;;5086378;27;20039;-85
2021/12/25 09:14:46;;;;;;;2.13;0.75;;;-4.30;99.90;;;;;;5093249;27;20039;-86
2021/12/25 09:17:13;;;;;;;5.13;0.77;;;-4.30;99.90;;;;;;5097773;27;20168;-85
2021/12/25 09:19:39;;;;;;;2.88;0.77;;;-4.20;99.90;;;;;;5100256;28;20067;-86
2021/12/25 09:22:06;;;;;;;5.32;0.90;;;-4.20;99.90;;;;;;5100635;27;20070;-85
2021/12/25 09:24:32;;;;;;;7.43;1.27;;;-4.00;99.90;;;;;;5084706;27;20206;-86
2021/12/25 09:26:58;;;;;;;3.63;1.38;;;-2.90;99.90;;;;;;5105871;27;20039;-86
2021/12/25 09:29:24;;;;;;;6.90;0.88;;;-4.00;99.90;;;;;;5087802;27;20031;-86
2021/12/25 09:31:50;;;;;;;3.50;1.00;;;-3.90;99.90;;;;;;5101972;27;20061;-86
2021/12/25 09:34:15;;;;;;;2.03;0.90;;;-3.80;99.90;;;;;;5087229;27;20464;-86
2021/12/25 09:36:41;;;;;;;0.82;0.47;;;-3.80;99.90;;;;;;5098497;27;20281;-85
2021/12/25 09:39:07;;;;;;;5.32;0.70;;;-3.80;99.90;;;;;;5090903;27;20035;-86
2021/12/25 09:41:34;;;;;;;2.28;0.73;;;-3.70;99.90;;;;;;5071551;28;20088;-85
2021/12/25 09:44:01;;;;;;;5.03;0.73;;;-3.70;99.90;;;;;;5097162;27;20140;-85
2021/12/25 09:46:27;;;;;;;4.28;0.82;;;-3.60;99.90;;;;;;5099558;28;20085;-86
2021/12/25 09:48:54;;;;;;;9.60;1.02;;;-3.60;99.90;;;;;;5083607;28;20044;-85
2021/12/25 09:51:21;;;;;;;6.22;1.25;;;-3.50;99.90;;;;;;5105533;27;20051;-85
2021/12/25 09:54:08;;;;;;;3.40;0.60;;;-3.40;99.90;;;;;;5106406;27;20035;-85
2021/12/25 09:56:36;;;;;;;1.67;0.50;;;-3.40;99.90;;;;;;5113763;27;20047;-85
2021/12/25 09:59:06;;;;;;;3.88;0.70;;;-3.30;99.90;;;;;;5135247;27;20440;-87
2021/12/25 10:01:37;;;;;;;4.88;0.75;;;-3.30;99.90;;;;;;5083269;27;20043;-85
2021/12/25 10:04:04;;;;;;;5.28;1.50;;;-3.20;99.90;;;;;;5088238;27;20051;-86
2021/12/25 10:06:33;;;;;;;2.70;0.60;;;-3.20;99.90;;;;;;5096629;27;20079;-85
2021/12/25 10:09:18;;;;;;;4.65;1.30;;;-3.10;99.90;;;;;;5095956;28;20123;-87
2021/12/25 10:12:19;;;;;;;2.25;1.17;;;-3.10;99.90;;;;;;5104513;27;20070;-87
2021/12/25 10:14:52;;;;;;;4.32;0.65;;;-3.00;99.90;;;;;;5025558;28;20199;-86
2021/12/25 10:17:27;;;;;;;5.25;1.60;;;-3.00;99.90;;;;;;5096716;27;20104;-86
2021/12/25 10:20:08;;;;;;;7.38;1.83;;;-3.00;99.90;;;;;;5116242;27;20076;-86
2021/12/25 10:22:35;;;;;;;4.35;1.75;;;-2.90;99.90;;;;;;5095051;27;20075;-86
2021/12/25 10:25:10;;;;;;;2.08;0.70;;;-2.30;99.90;;;;;;5090202;27;20040;-86
2021/12/25 10:27:36;;;;;;;7.82;2.20;;;-2.90;99.90;;;;;;5107262;27;20395;-85
2021/12/25 10:30:05;;;;;;;1.17;0.47;;;-2.80;99.90;;;;;;5090940;27;20039;-87
2021/12/25 10:32:38;;;;;;;2.15;0.80;;;-2.90;99.90;;;;;;5090762;27;20048;-86
2021/12/25 10:35:14;;;;;;;4.18;0.90;;;-2.90;99.90;;;;;;5092166;27;20043;-86
2021/12/25 10:37:41;;;;;;;3.47;0.73;;;-2.80;99.90;;;;;;5100582;27;20126;-85
2021/12/25 10:40:27;;;;;;;4.82;0.80;;;-2.80;99.90;;;;;;5130151;27;20042;-86
2021/12/25 10:42:56;;;;;;;6.15;0.90;;;-2.80;99.90;;;;;;5112934;27;20452;-85
2021/12/25 10:45:26;;;;;;;2.88;0.65;;;-2.80;99.90;;;;;;5120831;27;20055;-86
2021/12/25 10:48:09;;;;;;;5.25;0.95;;;-2.80;99.90;;;;;;5089557;28;20052;-86
2021/12/25 10:50:43;;;;;;;2.95;0.70;;;-2.70;99.90;;;;;;5104772;28;20088;-85
2021/12/25 10:53:42;;;;;;;2.35;0.65;;;-2.70;99.90;;;;;;5123252;27;20124;-84
2021/12/25 10:56:15;;;;;;;5.93;0.73;;;-2.70;99.90;;;;;;5089042;28;20047;-86
2021/12/25 10:58:43;;;;;;;2.53;0.75;;;-2.70;99.90;;;;;;5088530;28;20113;-85
2021/12/25 11:01:12;;;;;;;6.18;1.10;;;-2.70;99.90;;;;;;5102271;27;20086;-86
2021/12/25 11:03:40;;;;;;;4.25;0.68;;;-2.70;99.90;;;;;;5091293;27;20471;-86
2021/12/25 11:06:07;;;;;;;5.03;0.93;;;-2.60;99.90;;;;;;5092532;27;20068;-85
2021/12/25 11:08:35;;;;;;;9.02;0.70;;;-2.70;99.90;;;;;;5091871;27;20053;-85
2021/12/25 11:11:04;;;;;;;5.82;0.82;;;-2.70;99.90;;;;;;5092101;27;20172;-86
2021/12/25 11:13:42;;;;;;;3.05;0.98;;;-2.60;99.90;;;;;;5108809;27;20039;-84
2021/12/25 11:16:33;;;;;;;4.32;0.93;;;-2.60;99.90;;;;;;5094309;28;20047;-85
2021/12/25 11:19:09;;;;;;;4.07;1.27;;;-2.60;99.90;;;;;;5072318;28;20051;-85
2021/12/25 11:21:54;;;;;;;3.80;1.00;;;-2.60;99.90;;;;;;5093635;27;20125;-85
2021/12/25 11:24:24;;;;;;;2.67;0.77;;;-2.60;99.90;;;;;;5109463;27;20043;-85
2021/12/25 11:26:53;;;;;;;2.53;0.88;;;-2.60;99.90;;;;;;5125542;27;20451;-85
2021/12/25 11:29:22;;;;;;;4.88;1.10;;;-2.50;99.90;;;;;;5108762;27;20047;-85
2021/12/25 11:31:50;;;;;;;2.72;0.90;;;-2.50;99.90;;;;;;5106907;28;20040;-85
2021/12/25 11:34:17;;;;;;;5.57;1.02;;;-2.50;99.90;;;;;;5072786;28;20545;-86
2021/12/25 11:36:47;;;;;;;3.53;0.90;;;-2.40;99.90;;;;;;5122459;27;20070;-84
2021/12/25 11:39:15;;;;;;;4.38;0.80;;;-2.40;99.90;;;;;;5113792;27;20050;-86
2021/12/25 11:41:43;;;;;;;5.78;0.90;;;-2.40;99.90;;;;;;5112606;27;20074;-85
2021/12/25 11:44:34;;;;;;;3.28;0.90;;;-2.40;99.90;;;;;;5128677;27;20081;-85
2021/12/25 11:47:01;;;;;;;6.00;1.15;;;-2.40;99.90;;;;;;5129126;27;20141;-85
2021/12/25 11:49:27;;;;;;;5.65;0.88;;;-2.30;99.90;;;;;;5129454;27;20117;-86
2021/12/25 11:51:53;;;;;;;3.20;1.02;;;-2.30;99.90;;;;;;5130142;27;20512;-86
2021/12/25 11:54:41;;;;;;;7.35;1.30;;;-2.30;99.90;;;;;;5113127;27;20039;-85
2021/12/25 11:59:47;;;;;;;6.60;2.08;;;-2.20;99.90;;;;;;5128557;27;20384;-86
2021/12/25 12:02:38;;;;;;;4.53;1.30;;;-2.10;99.90;;;;;;5114185;27;20782;-86
2021/12/25 12:05:25;;;;;;;5.43;1.00;;;-0.90;99.90;;;;;;5095960;27;20456;-87
2021/12/25 12:07:58;;;;;;;3.10;1.10;;;-2.10;99.90;;;;;;5120414;27;20457;-88
2021/12/25 12:10:45;;;;;;;2.42;1.33;;;-2.00;99.90;;;;;;5119552;27;20435;-88
2021/12/25 12:13:25;;;;;;;2.25;0.80;;;-2.10;99.90;;;;;;5116513;27;20150;-88
2021/12/25 12:15:58;;;;;;;5.50;1.17;;;-2.00;99.90;;;;;;5122171;27;20046;-86
2021/12/25 12:18:24;;;;;;;8.50;2.13;;;-1.90;99.90;;;;;;5109310;27;20049;-88
2021/12/25 12:20:51;;;;;;;9.07;1.27;;;-1.90;99.90;;;;;;5097447;27;20050;-88
2021/12/25 12:23:42;;;;;;;5.15;1.23;;;-0.50;99.90;;;;;;5119752;27;20054;-87
2021/12/25 12:26:11;;;;;;;2.88;0.90;;;-1.90;99.90;;;;;;5119069;27;20043;-87
2021/12/25 12:28:53;;;;;;;2.60;0.70;;;-1.90;99.90;;;;;;5095649;27;20038;-88
2021/12/25 12:31:37;;;;;;;6.35;1.10;;;-1.90;99.90;;;;;;5121750;27;20634;-87
2021/12/25 12:34:42;;;;;;;4.43;0.70;;;-1.50;99.90;;;;;;5110017;27;20047;-88
2021/12/25 12:37:13;;;;;;;3.50;0.90;;;-0.40;99.90;;;;;;5037757;28;20544;-88
2021/12/25 12:40:03;;;;;;;3.10;0.80;;;-1.90;99.90;;;;;;5045103;28;20041;-89
2021/12/25 12:42:41;;;;;;;5.50;1.20;;;-1.80;99.90;;;;;;5073028;28;20324;-88
2021/12/25 12:45:18;;;;;;;2.83;0.77;;;-1.80;99.90;;;;;;5109972;28;20120;-87
2021/12/25 12:48:07;;;;;;;5.97;0.90;;;-1.90;99.90;;;;;;5076995;28;20074;-89
2021/12/25 12:50:34;;;;;;;6.95;0.90;;;-1.80;99.90;;;;;;5097222;27;20043;-87
2021/12/25 12:53:02;;;;;;;3.42;1.02;;;-1.80;99.90;;;;;;5078265;28;20039;-86
2021/12/25 12:55:30;;;;;;;4.30;1.30;;;-1.80;99.90;;;;;;5081212;28;20047;-89
2021/12/25 12:58:13;;;;;;;5.07;1.60;;;-1.80;99.90;;;;;;5071832;28;20396;-87
2021/12/25 13:00:40;;;;;;;5.57;1.92;;;-1.80;99.90;;;;;;5083049;28;20577;-88
2021/12/25 13:03:06;;;;;;;6.72;2.00;;;-1.80;99.90;;;;;;5078389;28;20047;-88
2021/12/25 13:05:40;;;;;;;4.13;1.00;;;-1.80;99.90;;;;;;5068885;27;20070;-89
2021/12/25 13:08:27;;;;;;;6.15;0.95;;;-1.80;99.90;;;;;;5082429;28;20048;-87
2021/12/25 13:11:02;;;;;;;4.03;1.55;;;-1.80;99.90;;;;;;5068779;28;20055;-89
2021/12/25 13:13:31;;;;;;;4.00;0.90;;;-1.80;99.90;;;;;;5095441;28;20044;-87
2021/12/25 13:16:00;;;;;;;4.07;0.90;;;-1.80;99.90;;;;;;5071907;27;20108;-88
2021/12/25 13:18:28;;;;;;;5.65;1.15;;;-1.80;99.90;;;;;;5110831;27;20050;-88
2021/12/25 13:20:54;;;;;;;3.90;0.90;;;-1.80;99.90;;;;;;5065367;27;20040;-87
2021/12/25 13:23:47;;;;;;;3.90;0.88;;;-1.80;99.90;;;;;;5060970;28;20043;-87
2021/12/25 13:26:16;;;;;;;6.13;1.02;;;-1.80;99.90;;;;;;5085272;28;20351;-88
2021/12/25 13:28:46;;;;;;;5.97;0.93;;;-1.80;99.90;;;;;;5085389;28;20252;-89
2021/12/25 13:31:16;;;;;;;2.72;0.82;;;-1.80;99.90;;;;;;5078548;28;20055;-89
2021/12/25 13:33:54;;;;;;;2.92;1.00;;;-1.80;99.90;;;;;;5082208;28;20051;-88
2021/12/25 13:36:28;;;;;;;3.70;0.90;;;-1.80;99.90;;;;;;5073104;27;20063;-87
2021/12/25 13:38:58;;;;;;;3.40;1.10;;;-1.80;99.90;;;;;;5116568;27;20072;-87
2021/12/25 13:41:52;;;;;;;3.03;0.90;;;-1.80;99.90;;;;;;5085214;27;20192;-87
2021/12/25 13:44:19;;;;;;;5.60;1.15;;;-1.80;99.90;;;;;;5080516;27;20067;-88
2021/12/25 13:47:03;;;;;;;6.70;1.00;;;-1.80;99.90;;;;;;5068485;27;20139;-87
2021/12/25 13:49:44;;;;;;;4.50;1.20;;;-1.80;99.90;;;;;;5112127;27;20051;-88
2021/12/25 13:52:12;;;;;;;4.50;1.20;;;-1.90;99.90;;;;;;5088303;28;20070;-88
2021/12/25 13:54:43;;;;;;;5.00;1.20;;;-1.90;99.90;;;;;;5069553;28;20098;-88
2021/12/25 13:57:11;;;;;;;7.07;1.20;;;-1.90;99.90;;;;;;5113864;27;20040;-87
2021/12/25 13:59:37;;;;;;;4.03;1.40;;;-1.90;99.90;;;;;;5090287;27;20043;-88
2021/12/25 14:02:12;;;;;;;4.05;1.10;;;-1.90;99.90;;;;;;5092403;28;20549;-87
2021/12/25 14:04:51;;;;;;;3.28;1.10;;;-1.90;99.90;;;;;;5078672;28;20168;-88